I Boat 2 — 2CMM8 — position and weather

sailwx.info

Track history (hours):
 
Tides and Currents Weather Stations Pressure Air Temp Water Temp Dewpoint Dewpoint Depression Visibility Wind Speed Wind Dir Waves Ship Positions

I Boat 2

Last reported at 2015-Aug-02 17:06 UTC. Time now 2015-Aug-27 21:26 UTC.
Position N 42°16' E 018°47'.
Warning: this ship's position is 25 days out of date.

Length 40 m; draft 2.4 m.

Type: Pleasure craft. MMSI: 235074051.

Date/timePositionNaut miles runAvg speedWind from/ knotsBaromVisibWave heightAir tempDewpointWater temp
2015-Aug-02 17:06N 42°16' E 018°47'713.1
2015-Aug-02 16:33N 42°21' E 018°41'1 0.8
2015-Aug-02 15:31N 42°22' E 018°42'0 0.0
2015-Aug-02 14:31N 42°22' E 018°42'0 0.0
2015-Aug-02 13:28N 42°22' E 018°42'0 0.0
2015-Aug-02 12:28N 42°22' E 018°42'2 2.7
2015-Aug-02 11:33N 42°19' E 018°42'7 0.4
2015-Aug-01 18:23N 42°17' E 018°50'1 0.3
2015-Aug-01 14:19N 42°16' E 018°52'2 0.0
2015-Jul-30 18:15N 42°15' E 018°49'912.3
2015-Jul-30 17:33N 42°22' E 018°41'1 0.6
2015-Jul-30 16:33N 42°22' E 018°42'0 0.0
2015-Jul-30 15:33N 42°22' E 018°42'0 0.0
2015-Jul-30 14:30N 42°22' E 018°42'0 0.0
2015-Jul-30 13:33N 42°22' E 018°42'0 0.0
2015-Jul-30 12:33N 42°22' E 018°42'0 0.0
2015-Jul-30 11:33N 42°22' E 018°42'0 0.0
2015-Jul-30 10:30N 42°22' E 018°42'0 0.0
2015-Jul-30 09:30N 42°22' E 018°42'0 0.0
2015-Jul-30 08:33N 42°22' E 018°42'0 0.0
2015-Jul-30 07:33N 42°22' E 018°42'0 0.0
2015-Jul-30 06:33N 42°21' E 018°42'0 0.0
2015-Jul-30 05:33N 42°22' E 018°42'0 0.0
2015-Jul-30 04:30N 42°22' E 018°42'0 0.0
2015-Jul-30 03:30N 42°22' E 018°42'0 0.0
2015-Jul-30 02:30N 42°22' E 018°42'0 0.0
2015-Jul-30 01:30N 42°22' E 018°42'0 0.0
2015-Jul-30 00:33N 42°22' E 018°42'0 0.0
2015-Jul-29 23:24N 42°22' E 018°42'0 0.0
2015-Jul-29 22:27N 42°22' E 018°42'0 0.0
2015-Jul-29 21:21N 42°22' E 018°42'0 0.0
2015-Jul-29 20:30N 42°22' E 018°42'0 0.0
2015-Jul-29 19:33N 42°22' E 018°42'0 0.3
2015-Jul-29 18:33N 42°22' E 018°41'0 0.0
2015-Jul-29 17:32N 42°22' E 018°41'0 0.0
2015-Jul-29 16:32N 42°22' E 018°41'0 0.0
2015-Jul-29 15:29N 42°22' E 018°41'0 0.0
2015-Jul-29 14:32N 42°22' E 018°41'0 0.0
2015-Jul-29 13:32N 42°22' E 018°41'0 0.0
2015-Jul-29 12:34N 42°22' E 018°41'0 0.0
2015-Jul-29 11:33N 42°22' E 018°41'2 0.5
2015-Jul-29 07:08N 42°22' E 018°38'0 0.0
2015-Jul-29 06:29N 42°22' E 018°38'0 0.0
2015-Jul-29 05:32N 42°22' E 018°38'0 0.0
2015-Jul-29 02:29N 42°22' E 018°38'0 0.0
2015-Jul-29 01:29N 42°22' E 018°38'0 0.0
2015-Jul-29 00:05N 42°22' E 018°38'0 0.0
2015-Jul-28 23:23N 42°22' E 018°38'0 0.0
2015-Jul-28 22:20N 42°22' E 018°38'0 0.0
2015-Jul-28 21:23N 42°22' E 018°38'0 0.0
2015-Jul-28 19:32N 42°22' E 018°38'0 0.0
2015-Jul-28 18:26N 42°22' E 018°38'0 0.0
2015-Jul-28 10:11N 42°22' E 018°38'2 2.5
2015-Jul-28 09:32N 42°22' E 018°36'4 4.1
2015-Jul-28 08:34N 42°26' E 018°37'3 3.3
2015-Jul-28 07:31N 42°26' E 018°41'0 0.0
2015-Jul-28 06:31N 42°26' E 018°41'0 0.0
2015-Jul-28 05:31N 42°26' E 018°41'0 0.0
2015-Jul-28 04:31N 42°26' E 018°41'0 0.0
2015-Jul-28 03:31N 42°26' E 018°41'0 0.0
2015-Jul-28 02:31N 42°26' E 018°41'0 0.0
2015-Jul-28 01:31N 42°26' E 018°41'0 0.0
2015-Jul-28 00:31N 42°26' E 018°41'0 0.0
2015-Jul-27 23:31N 42°26' E 018°41'0 0.0
2015-Jul-27 22:31N 42°26' E 018°41'0 0.0
2015-Jul-27 21:31N 42°26' E 018°41'0 0.0
2015-Jul-27 20:31N 42°26' E 018°41'0 0.0
2015-Jul-27 19:33N 42°26' E 018°41'1 1.1
2015-Jul-27 18:33N 42°25' E 018°41'0 0.0
2015-Jul-27 17:33N 42°25' E 018°41'0 0.0
2015-Jul-27 16:30N 42°25' E 018°41'0 0.0
2015-Jul-27 15:33N 42°25' E 018°41'0 0.0
2015-Jul-27 14:33N 42°25' E 018°41'0 0.0
2015-Jul-27 13:33N 42°25' E 018°41'0 0.0
2015-Jul-27 12:33N 42°25' E 018°41'0 0.0
2015-Jul-27 11:33N 42°25' E 018°41'1 1.1
2015-Jul-27 10:33N 42°26' E 018°41'0 0.0
2015-Jul-27 09:33N 42°26' E 018°41'0 0.0
2015-Jul-27 08:33N 42°26' E 018°41'0 0.0
2015-Jul-27 07:33N 42°26' E 018°41'0 0.0
2015-Jul-27 06:33N 42°26' E 018°41'0 0.0
2015-Jul-27 05:33N 42°26' E 018°41'0 0.0
2015-Jul-27 04:33N 42°26' E 018°41'0 0.0
2015-Jul-27 03:33N 42°26' E 018°41'0 0.0
2015-Jul-27 02:33N 42°26' E 018°41'0 0.0
2015-Jul-27 01:33N 42°26' E 018°41'0 0.0
2015-Jul-27 00:33N 42°26' E 018°41'0 0.0
2015-Jul-26 23:33N 42°26' E 018°41'0 0.0
2015-Jul-26 22:33N 42°26' E 018°41'0 0.0
2015-Jul-26 21:24N 42°26' E 018°41'0 0.0
2015-Jul-26 20:33N 42°26' E 018°41'0 0.0
2015-Jul-26 19:33N 42°26' E 018°41'0 0.0
2015-Jul-26 18:33N 42°26' E 018°41'0 0.0
2015-Jul-26 17:33N 42°26' E 018°41'0 0.0
2015-Jul-26 16:33N 42°26' E 018°41'0 0.0
2015-Jul-26 15:33N 42°26' E 018°41'0 0.0
2015-Jul-26 14:33N 42°26' E 018°41'0 0.0
2015-Jul-26 13:33N 42°26' E 018°41'0 0.0
2015-Jul-26 12:33N 42°26' E 018°41'0 0.0
2015-Jul-26 11:33N 42°26' E 018°41'0 0.0
2015-Jul-26 10:33N 42°26' E 018°41'0 0.0
2015-Jul-26 09:33N 42°26' E 018°41'0 0.0
2015-Jul-26 08:33N 42°26' E 018°41'0 0.0
2015-Jul-26 07:33N 42°26' E 018°41'0 0.0
2015-Jul-26 06:33N 42°26' E 018°41'0 0.0
2015-Jul-26 05:33N 42°26' E 018°41'0 0.0
2015-Jul-26 04:33N 42°26' E 018°41'0 0.0
2015-Jul-26 03:33N 42°26' E 018°41'0 0.0
2015-Jul-26 02:33N 42°26' E 018°41'0 0.0
2015-Jul-26 01:33N 42°26' E 018°41'0 0.0
2015-Jul-26 00:33N 42°26' E 018°41'0 0.0
2015-Jul-25 23:33N 42°26' E 018°41'0 0.0
2015-Jul-25 22:33N 42°26' E 018°41'0 0.0
2015-Jul-25 21:33N 42°26' E 018°41'0 0.0
2015-Jul-25 20:33N 42°26' E 018°41'0 0.0
2015-Jul-25 19:33N 42°26' E 018°41'0 0.0
2015-Jul-25 18:33N 42°26' E 018°41'0 0.0
2015-Jul-25 17:33N 42°26' E 018°41'0 0.0
2015-Jul-25 16:33N 42°26' E 018°41'0 0.0
2015-Jul-25 15:33N 42°26' E 018°41'0 0.0
2015-Jul-25 14:33N 42°26' E 018°41'0 0.0
2015-Jul-25 13:33N 42°26' E 018°41'0 0.0
2015-Jul-25 12:33N 42°26' E 018°41'0 0.0
2015-Jul-25 06:21N 42°26' E 018°41'0 0.0
2015-Jul-24 00:11N 42°26' E 018°41'0 0.0
2015-Jul-23 23:32N 42°26' E 018°41'0 0.0
2015-Jul-23 22:32N 42°26' E 018°41'0 0.0
2015-Jul-23 21:32N 42°26' E 018°41'0 0.0
2015-Jul-23 20:32N 42°26' E 018°41'0 0.0
2015-Jul-23 19:32N 42°26' E 018°41'0 0.0
2015-Jul-23 18:32N 42°26' E 018°41'0 0.0
2015-Jul-23 17:32N 42°26' E 018°41'  
Track history (hours):
 
Tides and Currents Weather Stations Pressure Air Temp Water Temp Dewpoint Dewpoint Depression Visibility Wind Speed Wind Dir Waves Ship Positions

I Boat 2

Last reported at 2015-Aug-02 17:06 UTC. Time now 2015-Aug-27 21:26 UTC.
Position N 42°16' E 018°47'.
Warning: this ship's position is 25 days out of date.

Length 40 m; draft 2.4 m.

Type: Pleasure craft. MMSI: 235074051.

Date/timePositionNaut miles runAvg speedWind from/ knotsBaromVisibWave heightAir tempDewpointWater temp
2015-Aug-02 17:06N 42°16' E 018°47'713.1
2015-Aug-02 16:33N 42°21' E 018°41'1 0.8
2015-Aug-02 15:31N 42°22' E 018°42'0 0.0
2015-Aug-02 14:31N 42°22' E 018°42'0 0.0
2015-Aug-02 13:28N 42°22' E 018°42'0 0.0
2015-Aug-02 12:28N 42°22' E 018°42'2 2.7
2015-Aug-02 11:33N 42°19' E 018°42'7 0.4
2015-Aug-01 18:23N 42°17' E 018°50'1 0.3
2015-Aug-01 14:19N 42°16' E 018°52'2 0.0
2015-Jul-30 18:15N 42°15' E 018°49'912.3
2015-Jul-30 17:33N 42°22' E 018°41'1 0.6
2015-Jul-30 16:33N 42°22' E 018°42'0 0.0
2015-Jul-30 15:33N 42°22' E 018°42'0 0.0
2015-Jul-30 14:30N 42°22' E 018°42'0 0.0
2015-Jul-30 13:33N 42°22' E 018°42'0 0.0
2015-Jul-30 12:33N 42°22' E 018°42'0 0.0
2015-Jul-30 11:33N 42°22' E 018°42'0 0.0
2015-Jul-30 10:30N 42°22' E 018°42'0 0.0
2015-Jul-30 09:30N 42°22' E 018°42'0 0.0
2015-Jul-30 08:33N 42°22' E 018°42'0 0.0
2015-Jul-30 07:33N 42°22' E 018°42'0 0.0
2015-Jul-30 06:33N 42°21' E 018°42'0 0.0
2015-Jul-30 05:33N 42°22' E 018°42'0 0.0
2015-Jul-30 04:30N 42°22' E 018°42'0 0.0
2015-Jul-30 03:30N 42°22' E 018°42'0 0.0
2015-Jul-30 02:30N 42°22' E 018°42'0 0.0
2015-Jul-30 01:30N 42°22' E 018°42'0 0.0
2015-Jul-30 00:33N 42°22' E 018°42'0 0.0
2015-Jul-29 23:24N 42°22' E 018°42'0 0.0
2015-Jul-29 22:27N 42°22' E 018°42'0 0.0
2015-Jul-29 21:21N 42°22' E 018°42'0 0.0
2015-Jul-29 20:30N 42°22' E 018°42'0 0.0
2015-Jul-29 19:33N 42°22' E 018°42'0 0.3
2015-Jul-29 18:33N 42°22' E 018°41'0 0.0
2015-Jul-29 17:32N 42°22' E 018°41'0 0.0
2015-Jul-29 16:32N 42°22' E 018°41'0 0.0
2015-Jul-29 15:29N 42°22' E 018°41'0 0.0
2015-Jul-29 14:32N 42°22' E 018°41'0 0.0
2015-Jul-29 13:32N 42°22' E 018°41'0 0.0
2015-Jul-29 12:34N 42°22' E 018°41'0 0.0
2015-Jul-29 11:33N 42°22' E 018°41'2 0.5
2015-Jul-29 07:08N 42°22' E 018°38'0 0.0
2015-Jul-29 06:29N 42°22' E 018°38'0 0.0
2015-Jul-29 05:32N 42°22' E 018°38'0 0.0
2015-Jul-29 02:29N 42°22' E 018°38'0 0.0
2015-Jul-29 01:29N 42°22' E 018°38'0 0.0
2015-Jul-29 00:05N 42°22' E 018°38'0 0.0
2015-Jul-28 23:23N 42°22' E 018°38'0 0.0
2015-Jul-28 22:20N 42°22' E 018°38'0 0.0
2015-Jul-28 21:23N 42°22' E 018°38'0 0.0
2015-Jul-28 19:32N 42°22' E 018°38'0 0.0
2015-Jul-28 18:26N 42°22' E 018°38'0 0.0
2015-Jul-28 10:11N 42°22' E 018°38'2 2.5
2015-Jul-28 09:32N 42°22' E 018°36'4 4.1
2015-Jul-28 08:34N 42°26' E 018°37'3 3.3
2015-Jul-28 07:31N 42°26' E 018°41'0 0.0
2015-Jul-28 06:31N 42°26' E 018°41'0 0.0
2015-Jul-28 05:31N 42°26' E 018°41'0 0.0
2015-Jul-28 04:31N 42°26' E 018°41'0 0.0
2015-Jul-28 03:31N 42°26' E 018°41'0 0.0
2015-Jul-28 02:31N 42°26' E 018°41'0 0.0
2015-Jul-28 01:31N 42°26' E 018°41'0 0.0
2015-Jul-28 00:31N 42°26' E 018°41'0 0.0
2015-Jul-27 23:31N 42°26' E 018°41'0 0.0
2015-Jul-27 22:31N 42°26' E 018°41'0 0.0
2015-Jul-27 21:31N 42°26' E 018°41'0 0.0
2015-Jul-27 20:31N 42°26' E 018°41'0 0.0
2015-Jul-27 19:33N 42°26' E 018°41'1 1.1
2015-Jul-27 18:33N 42°25' E 018°41'0 0.0
2015-Jul-27 17:33N 42°25' E 018°41'0 0.0
2015-Jul-27 16:30N 42°25' E 018°41'0 0.0
2015-Jul-27 15:33N 42°25' E 018°41'0 0.0
2015-Jul-27 14:33N 42°25' E 018°41'0 0.0
2015-Jul-27 13:33N 42°25' E 018°41'0 0.0
2015-Jul-27 12:33N 42°25' E 018°41'0 0.0
2015-Jul-27 11:33N 42°25' E 018°41'1 1.1
2015-Jul-27 10:33N 42°26' E 018°41'0 0.0
2015-Jul-27 09:33N 42°26' E 018°41'0 0.0
2015-Jul-27 08:33N 42°26' E 018°41'0 0.0
2015-Jul-27 07:33N 42°26' E 018°41'0 0.0
2015-Jul-27 06:33N 42°26' E 018°41'0 0.0
2015-Jul-27 05:33N 42°26' E 018°41'0 0.0
2015-Jul-27 04:33N 42°26' E 018°41'0 0.0
2015-Jul-27 03:33N 42°26' E 018°41'0 0.0
2015-Jul-27 02:33N 42°26' E 018°41'0 0.0
2015-Jul-27 01:33N 42°26' E 018°41'0 0.0
2015-Jul-27 00:33N 42°26' E 018°41'0 0.0
2015-Jul-26 23:33N 42°26' E 018°41'0 0.0
2015-Jul-26 22:33N 42°26' E 018°41'0 0.0
2015-Jul-26 21:24N 42°26' E 018°41'0 0.0
2015-Jul-26 20:33N 42°26' E 018°41'0 0.0
2015-Jul-26 19:33N 42°26' E 018°41'0 0.0
2015-Jul-26 18:33N 42°26' E 018°41'0 0.0
2015-Jul-26 17:33N 42°26' E 018°41'0 0.0
2015-Jul-26 16:33N 42°26' E 018°41'0 0.0
2015-Jul-26 15:33N 42°26' E 018°41'0 0.0
2015-Jul-26 14:33N 42°26' E 018°41'0 0.0
2015-Jul-26 13:33N 42°26' E 018°41'0 0.0
2015-Jul-26 12:33N 42°26' E 018°41'0 0.0
2015-Jul-26 11:33N 42°26' E 018°41'0 0.0
2015-Jul-26 10:33N 42°26' E 018°41'0 0.0
2015-Jul-26 09:33N 42°26' E 018°41'0 0.0
2015-Jul-26 08:33N 42°26' E 018°41'0 0.0
2015-Jul-26 07:33N 42°26' E 018°41'0 0.0
2015-Jul-26 06:33N 42°26' E 018°41'0 0.0
2015-Jul-26 05:33N 42°26' E 018°41'0 0.0
2015-Jul-26 04:33N 42°26' E 018°41'0 0.0
2015-Jul-26 03:33N 42°26' E 018°41'0 0.0
2015-Jul-26 02:33N 42°26' E 018°41'0 0.0
2015-Jul-26 01:33N 42°26' E 018°41'0 0.0
2015-Jul-26 00:33N 42°26' E 018°41'0 0.0
2015-Jul-25 23:33N 42°26' E 018°41'0 0.0
2015-Jul-25 22:33N 42°26' E 018°41'0 0.0
2015-Jul-25 21:33N 42°26' E 018°41'0 0.0
2015-Jul-25 20:33N 42°26' E 018°41'0 0.0
2015-Jul-25 19:33N 42°26' E 018°41'0 0.0
2015-Jul-25 18:33N 42°26' E 018°41'0 0.0
2015-Jul-25 17:33N 42°26' E 018°41'0 0.0
2015-Jul-25 16:33N 42°26' E 018°41'0 0.0
2015-Jul-25 15:33N 42°26' E 018°41'0 0.0
2015-Jul-25 14:33N 42°26' E 018°41'0 0.0
2015-Jul-25 13:33N 42°26' E 018°41'0 0.0
2015-Jul-25 12:33N 42°26' E 018°41'0 0.0
2015-Jul-25 06:21N 42°26' E 018°41'0 0.0
2015-Jul-24 00:11N 42°26' E 018°41'0 0.0
2015-Jul-23 23:32N 42°26' E 018°41'0 0.0
2015-Jul-23 22:32N 42°26' E 018°41'0 0.0
2015-Jul-23 21:32N 42°26' E 018°41'0 0.0
2015-Jul-23 20:32N 42°26' E 018°41'0 0.0
2015-Jul-23 19:32N 42°26' E 018°41'0 0.0
2015-Jul-23 18:32N 42°26' E 018°41'0 0.0
2015-Jul-23 17:32N 42°26' E 018°41'  

Dump ship's entire track history